createdAt,value
2018-03-25T00:01:48.096Z,5.50
2018-03-25T00:04:16.388Z,5.40
2018-03-25T00:06:44.775Z,5.40
2018-03-25T00:09:13.058Z,5.40
2018-03-25T00:11:40.600Z,5.40
2018-03-25T00:14:08.884Z,5.30
2018-03-25T00:16:36.412Z,5.30
2018-03-25T00:19:03.970Z,5.20
2018-03-25T00:21:31.495Z,5.20
2018-03-25T00:23:59.016Z,5.20
2018-03-25T00:26:26.542Z,5.20
2018-03-25T00:28:54.071Z,5.10
2018-03-25T00:31:21.595Z,5.10
2018-03-25T00:33:49.124Z,5.00
2018-03-25T00:36:16.654Z,5.00
2018-03-25T00:38:44.272Z,5.00
2018-03-25T00:41:12.572Z,5.00
2018-03-25T00:43:40.861Z,4.90
2018-03-25T00:46:08.383Z,4.90
2018-03-25T00:48:36.671Z,4.80
2018-03-25T00:51:04.200Z,4.90
2018-03-25T00:53:31.730Z,4.80
2018-03-25T00:55:59.255Z,4.80
2018-03-25T00:58:26.773Z,4.80
2018-03-25T01:00:54.288Z,4.80
2018-03-25T01:03:21.811Z,4.70
2018-03-25T01:05:49.335Z,4.70
2018-03-25T01:08:16.848Z,4.70
2018-03-25T01:10:45.302Z,4.70
2018-03-25T01:13:12.869Z,4.60
2018-03-25T01:15:52.204Z,4.60
2018-03-25T01:18:20.494Z,4.50
2018-03-25T01:20:49.521Z,4.50
2018-03-25T01:23:17.046Z,4.50
2018-03-25T01:25:44.551Z,4.50
2018-03-25T01:28:12.064Z,4.40
2018-03-25T01:30:39.587Z,4.40
2018-03-25T01:33:07.167Z,4.40
2018-03-25T01:35:34.651Z,4.40
2018-03-25T01:38:02.205Z,4.30
2018-03-25T01:40:29.817Z,4.40
2018-03-25T01:42:57.368Z,4.30
2018-03-25T01:45:24.950Z,4.30
2018-03-25T01:47:52.488Z,4.30
2018-03-25T01:50:20.012Z,4.30
2018-03-25T01:52:47.531Z,4.30
2018-03-25T01:55:15.051Z,4.30
2018-03-25T01:57:43.352Z,4.30
2018-03-25T02:00:10.872Z,4.30
2018-03-25T02:02:38.388Z,4.20
2018-03-25T02:05:05.916Z,4.20
2018-03-25T02:07:34.192Z,4.10
2018-03-25T02:10:02.475Z,4.10
2018-03-25T02:12:29.991Z,4.00
2018-03-25T02:14:57.499Z,4.10
2018-03-25T02:17:25.771Z,4.10
2018-03-25T02:19:53.282Z,4.10
2018-03-25T02:22:20.799Z,4.00
2018-03-25T02:24:49.106Z,4.00
2018-03-25T02:27:16.619Z,4.00
2018-03-25T02:29:44.127Z,4.00
2018-03-25T02:32:11.651Z,3.90
2018-03-25T02:34:39.188Z,3.80
2018-03-25T02:37:06.707Z,3.80
2018-03-25T02:39:34.224Z,3.80
2018-03-25T02:42:02.516Z,3.70
2018-03-25T02:44:30.033Z,3.70
2018-03-25T02:46:57.543Z,3.70
2018-03-25T02:49:25.070Z,3.70
2018-03-25T02:51:52.616Z,3.70
2018-03-25T02:54:20.148Z,3.60
2018-03-25T02:56:47.660Z,3.60
2018-03-25T02:59:15.938Z,3.50
2018-03-25T03:01:43.518Z,3.50
2018-03-25T03:04:11.797Z,3.50
2018-03-25T03:06:39.317Z,3.50
2018-03-25T03:09:06.880Z,3.60
2018-03-25T03:11:34.411Z,3.50
2018-03-25T03:14:01.935Z,3.50
2018-03-25T03:16:29.455Z,3.50
2018-03-25T03:18:56.970Z,3.40
2018-03-25T03:21:24.505Z,3.40
2018-03-25T03:23:52.039Z,3.40
2018-03-25T03:26:20.135Z,3.40
2018-03-25T03:28:47.654Z,3.30
2018-03-25T03:31:15.176Z,3.30
2018-03-25T03:33:42.695Z,3.20
2018-03-25T03:36:10.224Z,3.20
2018-03-25T03:38:37.737Z,3.20
2018-03-25T03:41:05.299Z,3.20
2018-03-25T03:43:33.624Z,3.10
2018-03-25T03:46:01.139Z,3.00
2018-03-25T03:48:29.410Z,3.10
2018-03-25T03:50:56.947Z,3.10
2018-03-25T03:53:24.466Z,3.10
2018-03-25T03:55:52.024Z,3.10
2018-03-25T03:58:19.555Z,3.00
2018-03-25T04:00:47.080Z,3.10
2018-03-25T04:03:14.663Z,3.00
2018-03-25T04:05:42.176Z,3.10
2018-03-25T04:08:09.699Z,3.00
2018-03-25T04:10:37.211Z,3.00
2018-03-25T04:13:04.771Z,2.90
2018-03-25T04:15:32.296Z,3.00
2018-03-25T04:17:59.836Z,3.00
2018-03-25T04:20:27.467Z,2.90
2018-03-25T04:22:54.981Z,2.90
2018-03-25T04:25:22.495Z,2.90
2018-03-25T04:27:50.003Z,2.90
2018-03-25T04:30:17.535Z,2.90
2018-03-25T04:32:45.055Z,2.90
2018-03-25T04:35:12.584Z,2.80
2018-03-25T04:37:40.103Z,2.80
2018-03-25T04:40:07.629Z,2.80
2018-03-25T04:42:35.151Z,2.80
2018-03-25T04:45:03.435Z,2.70
2018-03-25T04:47:31.020Z,2.70
2018-03-25T04:49:58.566Z,2.80
2018-03-25T04:52:26.086Z,2.70
2018-03-25T04:54:55.107Z,2.70
2018-03-25T04:57:22.635Z,2.70
2018-03-25T04:59:50.166Z,2.60
2018-03-25T05:02:17.691Z,2.70
2018-03-25T05:04:45.973Z,2.70
2018-03-25T05:07:14.253Z,2.60
2018-03-25T05:09:41.767Z,2.60
2018-03-25T05:12:09.294Z,2.70
2018-03-25T05:14:36.815Z,2.60
2018-03-25T05:17:04.526Z,2.60
2018-03-25T05:19:32.037Z,2.60
2018-03-25T05:22:00.321Z,2.60
2018-03-25T05:24:28.626Z,2.40
2018-03-25T05:26:56.206Z,2.40
2018-03-25T05:29:23.748Z,2.40
2018-03-25T05:31:51.281Z,2.40
2018-03-25T05:34:18.819Z,2.40
2018-03-25T05:36:46.344Z,2.40
2018-03-25T05:39:13.912Z,2.40
2018-03-25T05:41:41.435Z,2.40
2018-03-25T05:44:08.952Z,2.30
2018-03-25T05:46:36.459Z,2.40
2018-03-25T05:49:03.981Z,2.40
2018-03-25T05:51:31.684Z,2.40
2018-03-25T05:53:59.247Z,2.40
2018-03-25T05:56:26.735Z,2.40
2018-03-25T05:58:54.247Z,2.40
2018-03-25T06:01:21.811Z,2.40
2018-03-25T06:03:49.412Z,2.50
2018-03-25T06:06:16.960Z,2.50
2018-03-25T06:08:44.486Z,2.50
2018-03-25T06:11:12.791Z,2.50
2018-03-25T06:13:40.322Z,2.50
2018-03-25T06:16:08.622Z,2.70
2018-03-25T06:18:36.140Z,2.70
2018-03-25T06:21:03.673Z,2.70
2018-03-25T06:23:31.196Z,2.80
2018-03-25T06:25:58.828Z,2.80
2018-03-25T06:28:26.352Z,2.90
2018-03-25T06:30:53.873Z,2.90
2018-03-25T06:33:21.411Z,2.90
2018-03-25T06:35:48.968Z,3.00
2018-03-25T06:38:16.504Z,3.10
2018-03-25T06:40:44.014Z,3.20
2018-03-25T06:43:11.539Z,3.40
2018-03-25T06:45:39.110Z,3.50
2018-03-25T06:48:06.636Z,3.70
2018-03-25T06:50:34.157Z,3.90
2018-03-25T06:53:02.461Z,4.30
2018-03-25T06:55:30.091Z,4.30
2018-03-25T06:57:57.607Z,4.50
2018-03-25T07:00:25.749Z,4.70
2018-03-25T07:02:53.267Z,5.00
2018-03-25T07:05:20.803Z,5.40
2018-03-25T07:07:48.383Z,5.50
2018-03-25T07:10:15.917Z,5.80
2018-03-25T07:12:43.447Z,6.10
2018-03-25T07:15:11.128Z,6.30
2018-03-25T07:17:38.736Z,6.60
2018-03-25T07:20:06.255Z,6.60
2018-03-25T07:22:34.711Z,6.60
2018-03-25T07:25:02.199Z,6.80
2018-03-25T07:27:29.727Z,7.10
2018-03-25T07:29:57.257Z,7.40
2018-03-25T07:32:24.804Z,7.40
2018-03-25T07:34:52.323Z,7.50
2018-03-25T07:37:19.855Z,7.80
2018-03-25T07:39:47.392Z,7.90
2018-03-25T07:42:14.988Z,8.30
2018-03-25T07:44:43.293Z,9.00
2018-03-25T07:47:10.828Z,8.90
2018-03-25T07:49:39.230Z,9.10
2018-03-25T07:52:06.751Z,9.10
2018-03-25T07:54:34.332Z,9.50
2018-03-25T07:57:01.865Z,9.80
2018-03-25T07:59:29.383Z,8.90
2018-03-25T08:01:56.974Z,9.10
2018-03-25T08:04:24.512Z,9.20
2018-03-25T08:06:52.032Z,9.20
2018-03-25T08:09:20.350Z,9.70
2018-03-25T08:11:47.871Z,9.60
2018-03-25T08:14:16.171Z,10.10
2018-03-25T08:16:43.704Z,10.10
2018-03-25T08:19:11.998Z,11.20
2018-03-25T08:21:39.619Z,11.10
2018-03-25T08:24:07.159Z,10.80
2018-03-25T08:26:34.689Z,11.40
2018-03-25T08:29:02.204Z,11.80
2018-03-25T08:31:29.732Z,11.80
2018-03-25T08:33:57.344Z,12.10
2018-03-25T08:36:25.371Z,12.30
2018-03-25T08:38:53.142Z,12.30
2018-03-25T08:41:21.720Z,12.20
2018-03-25T08:43:49.238Z,12.10
2018-03-25T08:46:16.827Z,12.80
2018-03-25T08:48:44.356Z,13.20
2018-03-25T08:51:12.644Z,13.70
2018-03-25T08:53:40.230Z,13.70
2018-03-25T08:56:07.855Z,13.60
2018-03-25T08:58:35.407Z,13.60
2018-03-25T09:01:03.746Z,14.10
2018-03-25T09:03:31.276Z,14.10
2018-03-25T09:05:58.847Z,14.10
2018-03-25T09:08:26.377Z,14.50
2018-03-25T09:10:53.912Z,14.90
2018-03-25T09:13:21.431Z,14.80
2018-03-25T09:15:49.004Z,14.40
2018-03-25T09:18:16.535Z,15.00
2018-03-25T09:20:44.060Z,15.60
2018-03-25T09:23:11.590Z,15.70
2018-03-25T09:25:39.148Z,15.80
2018-03-25T09:28:06.675Z,16.00
2018-03-25T09:30:34.195Z,16.20
2018-03-25T09:33:01.727Z,16.40
2018-03-25T09:35:29.251Z,16.40
2018-03-25T09:37:56.781Z,16.40
2018-03-25T09:40:24.320Z,16.50
2018-03-25T09:42:51.864Z,16.40
2018-03-25T09:45:20.073Z,16.70
2018-03-25T09:47:47.601Z,16.90
2018-03-25T09:50:15.625Z,16.90
2018-03-25T09:52:43.176Z,16.80
2018-03-25T09:55:10.720Z,16.80
2018-03-25T09:57:39.052Z,16.70
2018-03-25T10:00:06.575Z,17.10
2018-03-25T10:02:39.787Z,17.20
2018-03-25T10:05:08.067Z,17.50
2018-03-25T10:07:35.591Z,17.50
2018-03-25T10:10:03.115Z,17.70
2018-03-25T10:12:30.673Z,17.80
2018-03-25T10:14:58.239Z,18.00
2018-03-25T10:17:25.766Z,18.20
2018-03-25T10:19:54.067Z,17.80
2018-03-25T10:22:21.584Z,17.80
2018-03-25T10:24:49.116Z,18.20
2018-03-25T10:27:16.631Z,18.60
2018-03-25T10:29:44.192Z,18.80
2018-03-25T10:32:11.725Z,18.80
2018-03-25T10:34:39.256Z,18.90
2018-03-25T10:37:06.795Z,18.90
2018-03-25T10:39:34.324Z,18.80
2018-03-25T10:42:01.849Z,18.90
2018-03-25T10:44:29.411Z,18.60
2018-03-25T10:46:56.923Z,18.60
2018-03-25T10:49:25.915Z,17.90
2018-03-25T10:51:53.443Z,17.80
2018-03-25T10:54:20.967Z,17.90
2018-03-25T10:56:48.488Z,18.40
2018-03-25T10:59:16.800Z,18.20
2018-03-25T11:01:44.361Z,18.10
2018-03-25T11:04:11.879Z,18.20
2018-03-25T11:06:40.163Z,18.50
2018-03-25T11:09:08.451Z,18.70
2018-03-25T11:11:35.971Z,18.70
2018-03-25T11:14:03.495Z,19.10
2018-03-25T11:16:31.057Z,18.90
2018-03-25T11:18:58.582Z,18.70
2018-03-25T11:21:26.131Z,18.70
2018-03-25T11:23:53.670Z,18.70
2018-03-25T11:26:21.217Z,18.80
2018-03-25T11:28:48.756Z,19.20
2018-03-25T11:31:16.295Z,19.40
2018-03-25T11:33:43.914Z,19.40
2018-03-25T11:36:11.437Z,19.40
2018-03-25T11:38:38.975Z,19.30
2018-03-25T11:41:07.278Z,19.40
2018-03-25T11:43:34.795Z,19.40
2018-03-25T11:46:02.336Z,19.50
2018-03-25T11:48:30.760Z,19.50
2018-03-25T11:50:58.279Z,19.00
2018-03-25T11:53:25.824Z,19.30
2018-03-25T11:55:53.376Z,19.30
2018-03-25T11:58:20.935Z,19.30
2018-03-25T12:00:48.484Z,19.50
2018-03-25T12:03:16.010Z,19.30
2018-03-25T12:05:44.290Z,19.10
2018-03-25T12:08:11.812Z,19.10
2018-03-25T12:10:39.359Z,19.40
2018-03-25T12:13:06.883Z,19.80
2018-03-25T12:15:34.407Z,20.10
2018-03-25T12:18:01.929Z,19.80
2018-03-25T12:20:29.455Z,20.10
2018-03-25T12:22:56.985Z,20.00
2018-03-25T12:25:24.531Z,20.40
2018-03-25T12:27:52.828Z,19.80
2018-03-25T12:30:20.392Z,19.80
2018-03-25T12:32:47.915Z,19.00
2018-03-25T12:35:15.434Z,18.20
2018-03-25T12:37:44.131Z,19.00
2018-03-25T12:40:12.415Z,18.80
2018-03-25T12:42:40.010Z,18.80
2018-03-25T12:45:07.536Z,18.90
2018-03-25T12:47:35.065Z,19.10
2018-03-25T12:50:02.588Z,19.60
2018-03-25T12:52:30.116Z,19.70
2018-03-25T12:54:57.633Z,19.80
2018-03-25T12:57:25.180Z,19.40
2018-03-25T12:59:52.710Z,18.90
2018-03-25T13:02:20.248Z,18.50
2018-03-25T13:04:48.550Z,18.00
2018-03-25T13:07:16.956Z,18.00
2018-03-25T13:09:44.538Z,18.60
2018-03-25T13:12:12.080Z,18.40
2018-03-25T13:14:39.611Z,18.40
2018-03-25T13:17:07.140Z,18.10
2018-03-25T13:19:35.436Z,17.80
2018-03-25T13:22:02.971Z,17.70
2018-03-25T13:24:31.266Z,17.30
2018-03-25T13:26:58.795Z,17.30
2018-03-25T13:29:26.329Z,17.50
2018-03-25T13:31:54.252Z,17.70
2018-03-25T13:34:21.791Z,17.70
2018-03-25T13:36:49.336Z,17.90
2018-03-25T13:39:16.865Z,18.40
2018-03-25T13:41:44.441Z,18.30
2018-03-25T13:44:11.986Z,18.40
2018-03-25T13:46:39.543Z,17.90
2018-03-25T13:49:07.080Z,17.40
2018-03-25T13:51:34.600Z,16.90
2018-03-25T13:54:02.183Z,16.90
2018-03-25T13:56:29.690Z,17.00
2018-03-25T13:58:57.215Z,17.00
2018-03-25T14:01:24.786Z,17.00
2018-03-25T14:03:53.090Z,18.00
2018-03-25T14:06:20.618Z,18.00
2018-03-25T14:08:48.913Z,17.70
2018-03-25T14:13:53.977Z,17.40
2018-03-25T14:16:21.549Z,17.00
2018-03-25T14:18:49.073Z,17.00
2018-03-25T14:21:16.599Z,16.80
2018-03-25T14:23:45.628Z,16.60
2018-03-25T14:26:13.175Z,16.60
2018-03-25T14:28:40.711Z,16.50
2018-03-25T14:31:08.271Z,16.50
2018-03-25T14:33:35.802Z,16.60
2018-03-25T14:36:03.347Z,16.40
2018-03-25T14:38:30.888Z,16.20
2018-03-25T14:40:58.425Z,16.10
2018-03-25T14:43:25.975Z,16.10
2018-03-25T14:45:53.522Z,16.10
2018-03-25T14:48:21.052Z,15.90
2018-03-25T14:50:48.597Z,15.90
2018-03-25T14:53:16.124Z,15.80
2018-03-25T14:55:43.705Z,15.80
2018-03-25T14:58:11.272Z,15.70
2018-03-25T15:00:38.852Z,15.70
2018-03-25T15:03:06.378Z,15.60
2018-03-25T15:05:33.900Z,15.60
2018-03-25T15:08:01.485Z,15.50
2018-03-25T15:10:28.961Z,15.60
2018-03-25T15:12:56.516Z,15.50
2018-03-25T15:15:24.055Z,15.40
2018-03-25T15:17:51.609Z,15.50
2018-03-25T15:20:19.202Z,15.40
2018-03-25T15:22:46.732Z,15.40
2018-03-25T15:25:14.250Z,15.40
2018-03-25T15:27:41.798Z,15.30
2018-03-25T15:30:10.102Z,15.20
2018-03-25T15:32:37.628Z,15.20
2018-03-25T15:35:05.181Z,15.20
2018-03-25T15:37:33.416Z,15.00
2018-03-25T15:40:00.972Z,15.20
2018-03-25T15:42:28.501Z,15.10
2018-03-25T15:44:56.811Z,15.10
2018-03-25T15:47:24.338Z,15.00
2018-03-25T15:49:52.727Z,14.80
2018-03-25T15:52:20.325Z,14.80
2018-03-25T15:54:47.867Z,14.80
2018-03-25T15:57:15.415Z,14.80
2018-03-25T15:59:42.966Z,14.70
2018-03-25T16:02:10.620Z,14.70
2018-03-25T16:04:38.979Z,14.50
2018-03-25T16:07:06.568Z,14.50
2018-03-25T16:09:34.123Z,14.50
2018-03-25T16:12:02.423Z,14.50
2018-03-25T16:14:30.440Z,14.40
2018-03-25T16:16:58.088Z,14.40
2018-03-25T16:19:25.753Z,14.40
2018-03-25T16:21:53.274Z,14.30
2018-03-25T16:24:21.564Z,14.30
2018-03-25T16:26:49.191Z,14.30
2018-03-25T16:29:16.811Z,14.20
2018-03-25T16:31:44.339Z,14.20
2018-03-25T16:34:12.661Z,14.10
2018-03-25T16:36:40.637Z,14.20
2018-03-25T16:39:09.002Z,14.20
2018-03-25T16:41:36.613Z,14.20
2018-03-25T16:44:05.005Z,13.80
2018-03-25T16:46:33.336Z,13.70
2018-03-25T16:49:01.012Z,13.70
2018-03-25T16:51:28.539Z,13.70
2018-03-25T16:53:56.071Z,13.70
2018-03-25T16:56:24.460Z,13.70
2018-03-25T16:58:52.767Z,13.60
2018-03-25T17:01:20.303Z,13.60
2018-03-25T17:03:47.963Z,13.60
2018-03-25T17:06:15.514Z,13.60
2018-03-25T17:08:43.807Z,13.60
2018-03-25T17:11:11.347Z,13.50
2018-03-25T17:13:39.982Z,13.30
2018-03-25T17:16:07.512Z,13.30
2018-03-25T17:18:35.089Z,13.20
2018-03-25T17:21:02.688Z,13.20
2018-03-25T17:23:30.267Z,13.20
2018-03-25T17:25:57.835Z,13.20
2018-03-25T17:28:25.435Z,13.10
2018-03-25T17:30:52.976Z,13.10
2018-03-25T17:33:21.304Z,13.00
2018-03-25T17:35:48.835Z,12.90
2018-03-25T17:38:16.411Z,12.90
2018-03-25T17:40:44.244Z,12.90
2018-03-25T17:43:11.830Z,12.90
2018-03-25T17:45:39.378Z,12.70
2018-03-25T17:48:07.013Z,12.60
2018-03-25T17:50:34.552Z,12.60
2018-03-25T17:53:02.139Z,12.60
2018-03-25T17:55:31.248Z,12.60
2018-03-25T17:57:58.871Z,12.60
2018-03-25T18:00:26.408Z,12.50
2018-03-25T18:02:54.020Z,12.50
2018-03-25T18:05:21.643Z,12.40
2018-03-25T18:07:49.229Z,12.40
2018-03-25T18:10:16.977Z,12.30
2018-03-25T18:12:44.520Z,12.30
2018-03-25T18:15:12.075Z,12.30
2018-03-25T18:17:39.622Z,12.30
2018-03-25T18:20:07.212Z,12.20
2018-03-25T18:22:34.747Z,12.10
2018-03-25T18:25:02.333Z,12.20
2018-03-25T18:27:29.909Z,12.20
2018-03-25T18:29:57.450Z,12.10
2018-03-25T18:32:24.972Z,12.10
2018-03-25T18:34:52.501Z,12.00
2018-03-25T18:37:20.106Z,12.00
2018-03-25T18:39:47.621Z,12.00
2018-03-25T18:42:15.751Z,12.00
2018-03-25T18:44:43.327Z,11.90
2018-03-25T18:47:10.873Z,11.80
2018-03-25T18:49:38.478Z,11.90
2018-03-25T18:52:06.064Z,11.80
2018-03-25T18:54:34.356Z,11.80
2018-03-25T18:57:01.893Z,11.70
2018-03-25T18:59:30.764Z,11.70
2018-03-25T19:02:00.040Z,11.60
2018-03-25T19:04:27.889Z,11.60
2018-03-25T19:06:55.505Z,11.60
2018-03-25T19:09:23.061Z,11.60
2018-03-25T19:11:50.615Z,11.50
2018-03-25T19:14:18.308Z,11.40
2018-03-25T19:16:46.132Z,11.40
2018-03-25T19:19:13.669Z,11.30
2018-03-25T19:21:41.339Z,11.30
2018-03-25T19:24:08.972Z,11.30
2018-03-25T19:26:36.529Z,11.20
2018-03-25T19:29:04.205Z,11.20
2018-03-25T19:31:31.889Z,11.10
2018-03-25T19:33:59.520Z,11.10
2018-03-25T19:36:27.212Z,11.00
2018-03-25T19:38:54.841Z,11.00
2018-03-25T19:41:23.393Z,11.00
2018-03-25T19:43:51.089Z,11.00
2018-03-25T19:46:18.628Z,11.00
2018-03-25T19:48:46.288Z,11.00
2018-03-25T19:51:13.872Z,10.90
2018-03-25T19:53:43.055Z,10.90
2018-03-25T19:56:11.673Z,10.90
2018-03-25T19:58:41.698Z,10.80
2018-03-25T20:01:10.108Z,10.80
2018-03-25T20:03:38.988Z,10.70
2018-03-25T20:06:07.314Z,10.50
2018-03-25T20:08:34.874Z,10.50
2018-03-25T20:11:02.441Z,10.50
2018-03-25T20:13:29.978Z,10.40
2018-03-25T20:15:57.510Z,10.40
2018-03-25T20:18:25.088Z,10.40
2018-03-25T20:20:52.712Z,10.40
2018-03-25T20:23:20.271Z,10.30
2018-03-25T20:25:48.585Z,10.20
2018-03-25T20:28:16.148Z,10.20
2018-03-25T20:30:43.958Z,10.20
2018-03-25T20:33:11.494Z,10.20
2018-03-25T20:35:39.040Z,10.20
2018-03-25T20:38:06.694Z,10.20
2018-03-25T20:40:34.260Z,10.20
2018-03-25T20:43:01.892Z,10.10
2018-03-25T20:45:29.424Z,10.10
2018-03-25T20:47:56.948Z,10.00
2018-03-25T20:50:24.469Z,10.00
2018-03-25T20:52:52.432Z,9.90
2018-03-25T20:55:20.735Z,9.90
2018-03-25T20:57:48.261Z,9.90
2018-03-25T21:00:16.572Z,9.90
2018-03-25T21:02:44.371Z,9.90
2018-03-25T21:05:11.871Z,9.80
2018-03-25T21:07:40.156Z,9.80
2018-03-25T21:10:07.679Z,9.80
2018-03-25T21:12:35.211Z,9.80
2018-03-25T21:15:02.743Z,9.80
2018-03-25T21:17:30.264Z,9.80
2018-03-25T21:19:58.517Z,9.80
2018-03-25T21:22:26.027Z,9.70
2018-03-25T21:24:53.553Z,9.80
2018-03-25T21:27:21.073Z,9.80
2018-03-25T21:29:48.611Z,9.80
2018-03-25T21:32:16.916Z,9.70
2018-03-25T21:34:44.444Z,9.70
2018-03-25T21:37:12.744Z,9.70
2018-03-25T21:39:40.266Z,9.70
2018-03-25T21:42:07.778Z,9.70
2018-03-25T21:44:35.335Z,9.60
2018-03-25T21:47:02.871Z,9.50
2018-03-25T21:49:30.403Z,9.50
2018-03-25T21:51:57.929Z,9.60
2018-03-25T21:54:25.438Z,9.50
2018-03-25T21:56:53.013Z,9.50
2018-03-25T21:59:20.523Z,9.50
2018-03-25T22:01:48.104Z,9.40
2018-03-25T22:04:15.629Z,9.50
2018-03-25T22:06:43.143Z,9.40
2018-03-25T22:09:10.682Z,9.50
2018-03-25T22:11:38.215Z,9.40
2018-03-25T22:14:06.070Z,9.40
2018-03-25T22:16:33.577Z,9.40
2018-03-25T22:19:01.103Z,9.40
2018-03-25T22:21:28.649Z,9.30
2018-03-25T22:23:56.164Z,9.30
2018-03-25T22:26:23.687Z,9.10
2018-03-25T22:28:51.208Z,9.10
2018-03-25T22:31:18.733Z,9.10
2018-03-25T22:33:46.267Z,9.10
2018-03-25T22:36:13.786Z,9.00
2018-03-25T22:38:42.138Z,9.00
2018-03-25T22:41:09.625Z,9.00
2018-03-25T22:43:37.138Z,8.90
2018-03-25T22:46:04.662Z,8.80
2018-03-25T22:48:32.277Z,8.80
2018-03-25T22:50:59.804Z,8.80
2018-03-25T22:53:27.329Z,8.70
2018-03-25T22:55:54.844Z,8.50
2018-03-25T22:58:22.360Z,8.50
2018-03-25T23:00:49.894Z,8.50
2018-03-25T23:03:17.416Z,8.40
2018-03-25T23:05:44.946Z,8.50
2018-03-25T23:08:12.455Z,8.50
2018-03-25T23:10:40.008Z,8.40
2018-03-25T23:13:07.531Z,8.40
2018-03-25T23:15:35.067Z,8.30
2018-03-25T23:18:02.655Z,8.20
2018-03-25T23:20:30.123Z,8.20
2018-03-25T23:22:57.651Z,8.20
2018-03-25T23:25:25.176Z,8.20
2018-03-25T23:27:52.712Z,8.20
2018-03-25T23:30:20.227Z,8.10
2018-03-25T23:32:48.502Z,8.00
2018-03-25T23:35:16.024Z,8.00
2018-03-25T23:37:43.546Z,8.00
2018-03-25T23:40:11.077Z,7.90
2018-03-25T23:42:38.603Z,7.90
2018-03-25T23:45:06.130Z,7.80
2018-03-25T23:47:33.636Z,7.80
2018-03-25T23:50:01.163Z,7.70
2018-03-25T23:52:28.677Z,7.70
2018-03-25T23:54:56.959Z,7.50
2018-03-25T23:57:25.243Z,7.40
2018-03-25T23:59:52.767Z,7.40
